Brookings, OR

9:51 AM PDT en Octubre 24, 2014 (GMT -0700)
Gardner Ridge | Change Station
CLOSE
Current Station
Estación meteorológica personal
Location: Brookings, OR
Altura: 1365 ft
Estaciones meteorológicas cercanas

Alt 1365 ft 42.11 °N, 124.21 °W | Updated 6 minutes ago

Nublado
Nublado
51.0 ° F
Sensación térmica 51.0 ° F
N
2.0
Viento Variable Viento desde NNE
Gusts 3.0 mph

Hoy
Alta -- | Baja -- ° F
--% Posibilidad de precipitaciones
Ayer
Alta -- | Baja -- ° F
Precip. -- pul
7:40 AM 6:21 PM
Luna nueva, 1% visible
Presión 29.84 pul
Visibilidad 1.8 Millas
Nubes Baja 1600 ft
Nubes dispersas 2400 ft
Nublado 3300 ft
Punto de rocío 51 ° F
Humedad 100%
Precipitaciones 0.46 pul
Espesor de la nieve No disponible.
UV 0 de una escala de 12
Polen .40 de una escala de 12
Calidad del aire No disponible.
Flu Activity Sporadic
SPECI KBOK 241645Z AUTO 10008G19KT 060V130 1 3/4SM -RA BR FEW016 SCT024 OVC033 13/12 A2984 RMK AO2 OVC V BKN P0005

More Conditions Fewer Conditions

Presión 29.84 pul
Visibilidad 1.8 Millas
Nubes Baja 1600 ft
Nubes dispersas 2400 ft
Nublado 3300 ft
Punto de rocío 51 ° F
Humedad 100%
Precipitaciones 0.46 pul
Espesor de la nieve No disponible.
UV 0 de una escala de 12
Polen .40 de una escala de 12
Calidad del aire No disponible.
Flu Activity Sporadic
SPECI KBOK 241645Z AUTO 10008G19KT 060V130 1 3/4SM -RA BR FEW016 SCT024 OVC033 13/12 A2984 RMK AO2 OVC V BKN P0005

More Conditions Fewer Conditions

10-Day Weather Forecast

Almanac

Astronomía

Oct. 24, 2014 Salida Puesta
Hora real 7:40 AM PDT 6:21 PM PDT
Crepúsculo civil 7:11 AM PDT 6:50 PM PDT
Crepúsculo náutico 6:39 AM PDT 7:22 PM PDT
Crepúsculo astronómico 6:06 AM PDT 7:55 PM PDT
Luna 8:25 AM PDT 7:04 PM PDT
Horas de luz 11h 38m
Horas de luz
10h 41m
Tomorrow will be 2m 37s shorter.
Luna nueva, 1% of the Moon is Illuminated
Hoy
Luna nueva
Oct 30
Cuarto creciente
Nov 6
Luna llena
Nov 14
Cuarto menguante
Nov 22
Nueva

Extremos de hoy

Máximos del estado Bajos del estado

Community

WunderPhotos

Upload Photos

1,764,609 ¡fotos cargadas!

WunderBlogs® & News

By Dr. Jeff Masters
Director of Meteorology, Weather Underground
By Kari Strenfel
Meteorologist, Weather Underground
By Christopher C. Burt
Weather Historian, Weather Underground
October 24, 2014
October 24, 2014
October 24, 2014

Nearby

Grosos de nieve

Estación Profundido Altura
Bigelow Camp 0 in 5120 ft
Big Red Mountain 0 in 6250 ft
Fish Lake 0 in 4665 ft
Billie Creek Divide 0 in 5300 ft
Fourmile Lake 0 in 6000 ft

Actividad de terremotos

Ciudad Distance Mag. Tiempo y dato
No hay informes recientes de la actividad sísmica.
Magnitud mínima muestra es 2,5.

Temperaturas de aguas costeras

Lugar Temperatura
Port Orford, OR 59.0 ° F
Crescent City, CA 60.1 ° F
Charleston, OR 57.9 ° F

Estaciones meteorológicas cercanas